createdAt,value
2022-09-14T00:03:28.691Z,5.40
2022-09-14T00:06:08.392Z,5.10
2022-09-14T00:08:40.580Z,4.50
2022-09-14T00:11:14.001Z,5.40
2022-09-14T00:13:45.370Z,6.50
2022-09-14T00:16:21.080Z,6.50
2022-09-14T00:18:55.919Z,6.30
2022-09-14T00:21:25.589Z,6.10
2022-09-14T00:23:56.148Z,5.60
2022-09-14T00:26:27.425Z,5.00
2022-09-14T00:28:59.467Z,5.10
2022-09-14T00:31:30.567Z,5.80
2022-09-14T00:34:02.677Z,5.20
2022-09-14T00:36:35.229Z,4.90
2022-09-14T00:39:06.022Z,4.40
2022-09-14T00:41:41.690Z,4.20
2022-09-14T00:44:12.152Z,4.90
2022-09-14T00:46:44.858Z,4.00
2022-09-14T00:49:18.751Z,3.60
2022-09-14T00:51:57.876Z,3.60
2022-09-14T00:54:29.109Z,3.30
2022-09-14T00:57:03.787Z,4.50
2022-09-14T00:59:38.874Z,4.30
2022-09-14T01:02:13.151Z,4.10
2022-09-14T01:04:45.632Z,4.30
2022-09-14T01:07:24.658Z,4.10
2022-09-14T01:10:10.741Z,3.90
2022-09-14T01:13:09.955Z,2.90
2022-09-14T01:15:58.270Z,3.80
2022-09-14T01:18:37.241Z,4.70
2022-09-14T01:21:30.828Z,4.70
2022-09-14T01:24:54.295Z,4.50
2022-09-14T01:27:34.088Z,4.40
2022-09-14T01:30:34.410Z,4.50
2022-09-14T01:33:08.901Z,4.80
2022-09-14T01:35:52.402Z,3.60
2022-09-14T01:38:42.325Z,4.10
2022-09-14T01:41:17.165Z,3.30
2022-09-14T01:43:57.492Z,3.90
2022-09-14T01:46:33.427Z,3.70
2022-09-14T01:49:12.267Z,4.30
2022-09-14T01:51:55.509Z,4.70
2022-09-14T01:54:36.256Z,4.80
2022-09-14T01:57:24.609Z,3.90
2022-09-14T02:00:00.336Z,6.10
2022-09-14T02:02:37.628Z,4.20
2022-09-14T02:05:18.013Z,3.90
2022-09-14T02:07:48.789Z,4.70
2022-09-14T02:10:20.564Z,4.80
2022-09-14T02:12:51.645Z,4.80
2022-09-14T02:15:22.949Z,4.50
2022-09-14T02:17:54.670Z,4.80
2022-09-14T02:20:41.043Z,5.10
2022-09-14T02:23:10.918Z,4.30
2022-09-14T02:25:43.613Z,4.40
2022-09-14T02:28:13.926Z,3.40
2022-09-14T02:31:05.323Z,4.80
2022-09-14T02:34:03.272Z,4.30
2022-09-14T02:36:50.780Z,3.60
2022-09-14T02:39:20.574Z,4.20
2022-09-14T02:44:52.829Z,3.20
2022-09-14T02:47:59.757Z,3.90
2022-09-14T02:50:32.649Z,4.00
2022-09-14T02:53:36.537Z,5.50
2022-09-14T02:56:09.621Z,7.30
2022-09-14T02:58:45.778Z,5.70
2022-09-14T03:01:21.681Z,4.80
2022-09-14T03:03:51.453Z,4.50
2022-09-14T03:06:21.555Z,4.90
2022-09-14T03:11:20.883Z,4.40
2022-09-14T03:13:50.437Z,5.20
2022-09-14T03:16:20.991Z,4.80
2022-09-14T03:18:51.234Z,5.50
2022-09-14T03:23:52.406Z,4.50
2022-09-14T03:26:24.674Z,4.90
2022-09-14T03:28:56.791Z,3.80
2022-09-14T03:31:27.751Z,4.00
2022-09-14T03:33:58.866Z,4.50
2022-09-14T03:36:30.217Z,3.10
2022-09-14T03:39:00.625Z,3.00
2022-09-14T03:41:30.091Z,3.90
2022-09-14T03:44:00.416Z,4.00
2022-09-14T03:46:29.449Z,4.90
2022-09-14T03:48:58.616Z,6.30
2022-09-14T03:51:28.528Z,6.00
2022-09-14T03:53:57.682Z,5.00
2022-09-14T03:56:26.911Z,4.10
2022-09-14T03:58:56.794Z,4.90
2022-09-14T04:01:26.453Z,4.10
2022-09-14T04:03:57.197Z,6.10
2022-09-14T04:06:26.479Z,4.90
2022-09-14T04:08:56.670Z,3.30
2022-09-14T04:13:55.440Z,4.20
2022-09-14T04:16:24.406Z,4.00
2022-09-14T04:18:53.783Z,4.50
2022-09-14T04:21:24.480Z,3.90
2022-09-14T04:24:15.305Z,3.40
2022-09-14T04:26:45.993Z,5.70
2022-09-14T04:31:43.806Z,5.50
2022-09-14T04:34:14.247Z,4.60
2022-09-14T04:36:44.279Z,5.30
2022-09-14T04:39:14.387Z,5.40
2022-09-14T04:41:44.106Z,3.90
2022-09-14T04:44:17.344Z,3.70
2022-09-14T04:46:56.018Z,3.10
2022-09-14T04:49:34.412Z,3.40
2022-09-14T04:52:12.813Z,3.20
2022-09-14T04:54:48.953Z,4.00
2022-09-14T04:57:32.117Z,4.90
2022-09-14T05:00:09.344Z,4.80
2022-09-14T05:02:45.574Z,3.80
2022-09-14T05:05:21.420Z,3.30
2022-09-14T05:07:57.635Z,4.20
2022-09-14T05:10:30.164Z,3.90
2022-09-14T05:15:35.212Z,4.70
2022-09-14T05:18:05.202Z,6.80
2022-09-14T05:20:36.737Z,5.70
2022-09-14T05:23:11.419Z,6.70
2022-09-14T05:25:40.098Z,7.30
2022-09-14T05:28:09.087Z,6.20
2022-09-14T05:30:52.909Z,6.20
2022-09-14T05:33:24.899Z,7.70
2022-09-14T05:36:01.045Z,9.10
2022-09-14T05:38:31.838Z,8.10
2022-09-14T05:41:00.884Z,7.50
2022-09-14T05:43:30.588Z,6.70
2022-09-14T05:46:07.117Z,5.30
2022-09-14T05:48:41.310Z,6.20
2022-09-14T05:51:16.876Z,7.20
2022-09-14T05:53:53.527Z,6.30
2022-09-14T05:56:24.457Z,5.30
2022-09-14T05:58:53.315Z,6.10
2022-09-14T06:01:32.032Z,5.00
2022-09-14T06:04:03.818Z,4.50
2022-09-14T06:06:36.404Z,4.80
2022-09-14T06:09:11.532Z,3.60
2022-09-14T06:11:46.408Z,4.00
2022-09-14T06:14:21.762Z,4.40
2022-09-14T06:17:01.866Z,4.50
2022-09-14T06:19:33.248Z,3.70
2022-09-14T06:22:01.975Z,3.90
2022-09-14T06:24:34.383Z,4.00
2022-09-14T06:27:10.669Z,4.30
2022-09-14T06:29:41.000Z,3.40
2022-09-14T06:34:42.601Z,3.20
2022-09-14T06:37:16.686Z,3.10
2022-09-14T06:39:47.414Z,3.00
2022-09-14T06:42:19.499Z,3.00
2022-09-14T06:44:54.153Z,3.10
2022-09-14T06:47:24.671Z,2.70
2022-09-14T06:49:53.209Z,2.80
2022-09-14T06:52:22.043Z,2.40
2022-09-14T06:54:50.829Z,2.40
2022-09-14T06:57:19.512Z,2.00
2022-09-14T06:59:50.156Z,2.50
2022-09-14T07:02:18.856Z,2.90
2022-09-14T07:04:47.515Z,2.40
2022-09-14T07:07:17.023Z,2.40
2022-09-14T07:09:45.601Z,2.40
2022-09-14T07:12:14.800Z,1.80
2022-09-14T07:14:44.305Z,2.70
2022-09-14T07:17:22.247Z,2.20
2022-09-14T07:19:53.843Z,2.50
2022-09-14T07:22:23.058Z,3.00
2022-09-14T07:24:51.744Z,2.30
2022-09-14T07:27:20.428Z,2.70
2022-09-14T07:29:49.120Z,2.30
2022-09-14T07:32:17.709Z,2.50
2022-09-14T07:34:47.637Z,2.00
2022-09-14T07:37:16.608Z,2.30
2022-09-14T07:39:45.557Z,2.70
2022-09-14T07:42:15.115Z,2.00
2022-09-14T07:44:46.433Z,2.40
2022-09-14T07:47:25.725Z,2.10
2022-09-14T07:49:57.195Z,2.00
2022-09-14T07:52:25.920Z,2.10
2022-09-14T07:54:56.601Z,2.80
2022-09-14T07:57:45.473Z,2.20
2022-09-14T08:00:21.845Z,1.90
2022-09-14T08:03:04.813Z,2.20
2022-09-14T08:05:33.489Z,1.90
2022-09-14T08:08:03.250Z,2.30
2022-09-14T08:10:38.708Z,2.50
2022-09-14T08:13:10.064Z,1.90
2022-09-14T08:15:40.230Z,2.60
2022-09-14T08:18:08.896Z,2.20
2022-09-14T08:20:37.804Z,2.10
2022-09-14T08:23:06.888Z,2.30
2022-09-14T08:25:42.779Z,2.10
2022-09-14T08:28:13.778Z,2.30
2022-09-14T08:30:42.879Z,1.80
2022-09-14T08:33:11.450Z,2.30
2022-09-14T08:35:57.313Z,2.40
2022-09-14T08:38:28.073Z,2.00
2022-09-14T08:40:57.583Z,2.60
2022-09-14T08:43:28.047Z,2.00
2022-09-14T08:46:06.141Z,2.20
2022-09-14T08:48:41.964Z,2.10
2022-09-14T08:51:10.674Z,1.90
2022-09-14T08:56:19.076Z,2.30
2022-09-14T08:59:01.189Z,1.90
2022-09-14T09:02:08.159Z,1.60
2022-09-14T09:04:57.838Z,1.60
2022-09-14T09:08:01.441Z,1.60
2022-09-14T09:10:32.165Z,1.80
2022-09-14T09:13:05.059Z,1.90
2022-09-14T09:15:41.530Z,1.70
2022-09-14T09:18:51.380Z,2.00
2022-09-14T09:21:20.271Z,2.00
2022-09-14T09:23:50.483Z,1.90
2022-09-14T09:26:32.389Z,1.70
2022-09-14T09:29:03.536Z,1.80
2022-09-14T09:31:54.280Z,1.70
2022-09-14T09:34:44.527Z,1.70
2022-09-14T09:37:34.714Z,2.10
2022-09-14T09:40:08.766Z,1.60
2022-09-14T09:42:37.514Z,1.50
2022-09-14T09:45:06.833Z,1.60
2022-09-14T09:47:41.218Z,1.40
2022-09-14T09:50:16.069Z,1.90
2022-09-14T09:53:00.335Z,1.60
2022-09-14T09:55:39.353Z,1.80
2022-09-14T09:58:35.149Z,1.40
2022-09-14T10:01:29.888Z,1.10
2022-09-14T10:04:18.713Z,1.40
2022-09-14T10:06:50.308Z,1.80
2022-09-14T10:09:25.004Z,1.70
2022-09-14T10:12:02.161Z,1.90
2022-09-14T10:14:34.447Z,1.70
2022-09-14T10:17:21.989Z,1.60
2022-09-14T10:19:53.186Z,1.80
2022-09-14T10:22:36.276Z,1.40
2022-09-14T10:25:26.639Z,1.80
2022-09-14T10:27:55.125Z,1.80
2022-09-14T10:30:27.393Z,1.50
2022-09-14T10:33:00.629Z,1.60
2022-09-14T10:35:41.225Z,1.50
2022-09-14T10:38:31.757Z,1.50
2022-09-14T10:41:00.227Z,1.80
2022-09-14T10:43:43.171Z,1.40
2022-09-14T10:46:20.628Z,1.70
2022-09-14T10:49:01.924Z,1.00
2022-09-14T10:51:47.394Z,1.40
2022-09-14T10:54:40.355Z,1.40
2022-09-14T10:57:43.135Z,1.80
2022-09-14T11:00:19.194Z,1.50
2022-09-14T11:03:32.625Z,1.80
2022-09-14T11:06:12.886Z,1.70
2022-09-14T11:09:37.482Z,1.60
2022-09-14T11:12:20.924Z,1.90
2022-09-14T11:14:58.410Z,1.80
2022-09-14T11:17:43.985Z,1.70
2022-09-14T11:20:21.887Z,1.80
2022-09-14T11:23:10.438Z,1.60
2022-09-14T11:26:00.322Z,1.30
2022-09-14T11:28:48.165Z,1.50
2022-09-14T11:31:23.865Z,1.60
2022-09-14T11:34:14.308Z,1.50
2022-09-14T11:36:54.900Z,1.90
2022-09-14T11:39:29.386Z,1.80
2022-09-14T11:42:10.152Z,1.70
2022-09-14T11:44:41.895Z,1.40
2022-09-14T11:47:15.615Z,1.80
2022-09-14T11:50:03.553Z,1.70
2022-09-14T11:52:33.879Z,1.60
2022-09-14T11:55:09.248Z,1.50
2022-09-14T11:57:38.632Z,2.30
2022-09-14T12:00:33.856Z,2.30
2022-09-14T12:03:19.526Z,1.80
2022-09-14T12:05:50.155Z,2.20
2022-09-14T12:08:38.531Z,2.10
2022-09-14T12:11:24.787Z,1.70
2022-09-14T12:14:29.748Z,2.50
2022-09-14T12:17:17.591Z,2.50
2022-09-14T12:19:59.720Z,2.20
2022-09-14T12:22:38.696Z,2.10
2022-09-14T12:25:10.098Z,2.00
2022-09-14T12:27:41.358Z,2.30
2022-09-14T12:30:41.103Z,2.50
2022-09-14T12:34:07.022Z,1.90
2022-09-14T12:36:38.368Z,2.00
2022-09-14T12:39:22.826Z,2.30
2022-09-14T12:41:51.684Z,2.00
2022-09-14T12:44:29.825Z,1.80
2022-09-14T12:46:58.713Z,2.00
2022-09-14T12:49:34.905Z,1.80
2022-09-14T12:52:24.242Z,1.50
2022-09-14T12:55:18.426Z,2.10
2022-09-14T12:58:09.850Z,1.70
2022-09-14T13:00:59.677Z,2.00
2022-09-14T13:03:45.241Z,1.50
2022-09-14T13:06:15.164Z,2.20
2022-09-14T13:08:55.278Z,2.00
2022-09-14T13:11:37.581Z,1.80
2022-09-14T13:14:18.351Z,1.80
2022-09-14T13:16:50.475Z,2.00
2022-09-14T13:19:31.399Z,1.80
2022-09-14T13:22:02.643Z,1.90
2022-09-14T13:24:44.114Z,1.80
2022-09-14T13:27:21.487Z,2.10
2022-09-14T13:30:17.953Z,2.00
2022-09-14T13:32:50.351Z,1.80
2022-09-14T13:35:30.011Z,2.00
2022-09-14T13:38:14.008Z,1.50
2022-09-14T13:40:43.415Z,1.80
2022-09-14T13:43:13.018Z,1.80
2022-09-14T13:48:15.166Z,2.00
2022-09-14T13:50:47.308Z,2.00
2022-09-14T13:53:37.661Z,1.90
2022-09-14T13:56:30.217Z,2.00
2022-09-14T13:59:36.553Z,1.90
2022-09-14T14:02:14.333Z,2.40
2022-09-14T14:04:49.736Z,1.80
2022-09-14T14:07:27.627Z,2.40
2022-09-14T14:10:02.180Z,1.70
2022-09-14T14:12:37.892Z,2.00
2022-09-14T14:15:26.438Z,2.10
2022-09-14T14:17:55.291Z,2.70
2022-09-14T14:20:26.787Z,2.50
2022-09-14T14:23:21.782Z,2.90
2022-09-14T14:25:54.679Z,2.80
2022-09-14T14:28:28.190Z,3.20
2022-09-14T14:31:07.840Z,2.50
2022-09-14T14:33:48.781Z,2.90
2022-09-14T14:36:19.107Z,3.00
2022-09-14T14:38:48.496Z,3.30
2022-09-14T14:41:21.144Z,3.10
2022-09-14T14:43:51.131Z,3.40
2022-09-14T14:46:20.039Z,4.10
2022-09-14T14:48:48.675Z,4.00
2022-09-14T14:51:17.158Z,3.40
2022-09-14T14:53:46.562Z,2.80
2022-09-14T14:56:15.551Z,3.00
2022-09-14T14:58:46.691Z,3.40
2022-09-14T15:01:16.763Z,3.60
2022-09-14T15:03:45.381Z,3.10
2022-09-14T15:06:18.454Z,4.00
2022-09-14T15:08:47.274Z,6.80
2022-09-14T15:11:20.058Z,8.70
2022-09-14T15:13:49.306Z,7.00
2022-09-14T15:16:17.964Z,6.10
2022-09-14T15:18:46.520Z,7.30
2022-09-14T15:21:15.369Z,14.30
2022-09-14T15:23:44.115Z,14.70
2022-09-14T15:26:13.192Z,15.90
2022-09-14T15:28:41.776Z,15.80
2022-09-14T15:31:10.667Z,13.40
2022-09-14T15:33:39.142Z,11.40
2022-09-14T15:36:07.628Z,11.70
2022-09-14T15:38:36.312Z,10.00
2022-09-14T15:41:05.511Z,9.80
2022-09-14T15:43:34.194Z,9.20
2022-09-14T15:46:04.202Z,8.40
2022-09-14T15:48:33.142Z,9.20
2022-09-14T15:51:12.441Z,8.50
2022-09-14T15:53:42.946Z,7.50
2022-09-14T15:56:15.026Z,6.30
2022-09-14T15:58:48.134Z,4.80
2022-09-14T16:01:21.121Z,4.60
2022-09-14T16:04:02.465Z,5.00
2022-09-14T16:06:33.358Z,6.00
2022-09-14T16:09:05.070Z,5.30
2022-09-14T16:11:36.733Z,6.40
2022-09-14T16:14:11.615Z,6.70
2022-09-14T16:16:41.016Z,7.10
2022-09-14T16:19:14.884Z,6.50
2022-09-14T16:21:43.963Z,6.20
2022-09-14T16:24:18.415Z,6.00
2022-09-14T16:26:47.697Z,5.30
2022-09-14T16:29:21.596Z,5.60
2022-09-14T16:31:56.434Z,5.40
2022-09-14T16:34:28.960Z,5.00
2022-09-14T16:36:58.955Z,6.00
2022-09-14T16:42:02.791Z,6.60
2022-09-14T16:44:35.476Z,5.40
2022-09-14T16:47:06.666Z,5.70
2022-09-14T16:49:41.961Z,6.20
2022-09-14T16:52:13.666Z,5.50
2022-09-14T16:54:42.349Z,5.20
2022-09-14T16:57:14.355Z,5.50
2022-09-14T16:59:49.449Z,4.80
2022-09-14T17:02:27.700Z,5.00
2022-09-14T17:05:03.338Z,5.10
2022-09-14T17:07:38.838Z,4.40
2022-09-14T17:10:14.029Z,4.90
2022-09-14T17:12:49.306Z,4.50
2022-09-14T17:15:23.725Z,4.00
2022-09-14T17:17:58.213Z,3.60
2022-09-14T17:20:33.625Z,4.30
2022-09-14T17:23:11.408Z,3.80
2022-09-14T17:25:46.224Z,3.90
2022-09-14T17:28:24.803Z,4.00
2022-09-14T17:31:01.723Z,3.50
2022-09-14T17:33:39.152Z,4.20
2022-09-14T17:36:19.093Z,4.10
2022-09-14T17:38:54.981Z,4.30
2022-09-14T17:41:32.569Z,4.40
2022-09-14T17:44:15.220Z,5.80
2022-09-14T17:46:52.508Z,8.10
2022-09-14T17:49:23.261Z,9.20
2022-09-14T17:51:52.622Z,7.60
2022-09-14T17:54:21.353Z,7.80
2022-09-14T17:59:21.122Z,11.40
2022-09-14T18:01:50.492Z,16.00
2022-09-14T18:04:19.562Z,14.60
2022-09-14T18:06:50.317Z,16.90
2022-09-14T18:09:21.516Z,16.90
2022-09-14T18:11:51.247Z,10.60
2022-09-14T18:14:19.849Z,8.40
2022-09-14T18:16:48.642Z,6.90
2022-09-14T18:19:17.358Z,7.80
2022-09-14T18:21:50.193Z,7.80
2022-09-14T18:24:19.097Z,7.70
2022-09-14T18:26:48.908Z,7.50
2022-09-14T18:29:21.528Z,6.80
2022-09-14T18:31:53.343Z,6.20
2022-09-14T18:34:23.696Z,5.70
2022-09-14T18:36:52.662Z,5.30
2022-09-14T18:39:21.556Z,5.70
2022-09-14T18:41:54.644Z,4.70
2022-09-14T18:44:23.942Z,5.20
2022-09-14T18:46:52.809Z,5.30
2022-09-14T18:49:21.516Z,5.50
2022-09-14T18:51:50.523Z,5.40
2022-09-14T18:54:22.211Z,4.90
2022-09-14T18:56:53.107Z,5.60
2022-09-14T18:59:21.994Z,4.70
2022-09-14T19:01:50.540Z,4.30
2022-09-14T19:04:19.422Z,4.30
2022-09-14T19:06:47.944Z,3.80
2022-09-14T19:09:16.427Z,4.80
2022-09-14T19:11:45.103Z,4.00
2022-09-14T19:14:14.090Z,4.20
2022-09-14T19:16:43.309Z,4.30
2022-09-14T19:19:14.606Z,4.00
2022-09-14T19:21:44.875Z,3.80
2022-09-14T19:24:15.948Z,3.40
2022-09-14T19:26:48.145Z,4.20
2022-09-14T19:29:20.363Z,3.90
2022-09-14T19:31:51.959Z,3.90
2022-09-14T19:34:22.779Z,4.60
2022-09-14T19:36:52.246Z,4.30
2022-09-14T19:41:50.637Z,4.40
2022-09-14T19:44:19.322Z,4.10
2022-09-14T19:46:48.048Z,4.70
2022-09-14T19:49:20.737Z,4.10
2022-09-14T19:51:50.121Z,3.70
2022-09-14T19:54:18.992Z,3.60
2022-09-14T19:56:47.571Z,5.00
2022-09-14T19:59:17.075Z,4.40
2022-09-14T20:01:45.997Z,4.30
2022-09-14T20:04:16.085Z,3.60
2022-09-14T20:06:46.660Z,4.00
2022-09-14T20:09:18.675Z,3.80
2022-09-14T20:11:49.407Z,3.60
2022-09-14T20:14:21.065Z,3.70
2022-09-14T20:17:00.219Z,3.40
2022-09-14T20:19:29.898Z,3.80
2022-09-14T20:21:58.588Z,3.80
2022-09-14T20:24:28.917Z,3.00
2022-09-14T20:27:00.085Z,3.00
2022-09-14T20:29:32.024Z,2.70
2022-09-14T20:32:00.921Z,3.10
2022-09-14T20:34:30.110Z,2.50
2022-09-14T20:37:01.147Z,3.00
2022-09-14T20:39:30.759Z,3.20
2022-09-14T20:41:59.544Z,3.20
2022-09-14T20:44:28.127Z,3.30
2022-09-14T20:46:57.324Z,3.40
2022-09-14T20:49:25.809Z,3.20
2022-09-14T20:51:54.702Z,2.80
2022-09-14T20:54:23.711Z,2.70
2022-09-14T20:56:52.579Z,2.80
2022-09-14T20:59:25.411Z,2.70
2022-09-14T21:01:54.248Z,3.10
2022-09-14T21:04:24.785Z,3.10
2022-09-14T21:06:55.975Z,3.00
2022-09-14T21:09:26.315Z,3.20
2022-09-14T21:11:55.546Z,2.80
2022-09-14T21:14:24.229Z,3.10
2022-09-14T21:16:56.801Z,3.10
2022-09-14T21:19:28.647Z,2.80
2022-09-14T21:21:58.086Z,2.90
2022-09-14T21:24:26.754Z,3.20
2022-09-14T21:26:57.654Z,3.20
2022-09-14T21:29:26.890Z,3.30
2022-09-14T21:31:55.453Z,3.00
2022-09-14T21:34:24.490Z,3.10
2022-09-14T21:36:53.760Z,2.80
2022-09-14T21:39:27.334Z,3.00
2022-09-14T21:41:59.303Z,3.00
2022-09-14T21:44:30.930Z,3.10
2022-09-14T21:47:00.418Z,3.40
2022-09-14T21:49:29.400Z,3.10
2022-09-14T21:51:58.276Z,3.30
2022-09-14T21:54:27.575Z,2.80
2022-09-14T21:56:56.579Z,2.80
2022-09-14T21:59:25.362Z,3.00
2022-09-14T22:01:54.174Z,3.30
2022-09-14T22:04:25.385Z,2.90
2022-09-14T22:06:54.997Z,3.10
2022-09-14T22:09:26.216Z,3.30
2022-09-14T22:11:56.954Z,3.10
2022-09-14T22:14:30.203Z,2.80
2022-09-14T22:16:59.222Z,3.10
2022-09-14T22:19:30.825Z,2.90
2022-09-14T22:21:59.806Z,2.80
2022-09-14T22:24:37.015Z,2.80
2022-09-14T22:27:10.702Z,2.90
2022-09-14T22:29:41.319Z,3.00
2022-09-14T22:32:11.460Z,2.70
2022-09-14T22:34:42.294Z,2.70
2022-09-14T22:37:12.100Z,2.60
2022-09-14T22:39:41.205Z,3.10
2022-09-14T22:42:10.808Z,3.00
2022-09-14T22:44:40.309Z,3.10
2022-09-14T22:47:09.997Z,3.20
2022-09-14T22:49:39.019Z,3.90
2022-09-14T22:52:08.208Z,3.60
2022-09-14T22:54:37.090Z,2.90
2022-09-14T22:57:06.597Z,3.10
2022-09-14T22:59:35.384Z,3.30
2022-09-14T23:02:04.722Z,2.90
2022-09-14T23:04:34.298Z,2.50
2022-09-14T23:07:04.613Z,3.00
2022-09-14T23:09:34.517Z,2.50
2022-09-14T23:12:05.550Z,3.50
2022-09-14T23:14:35.436Z,3.10
2022-09-14T23:17:05.456Z,3.00
2022-09-14T23:19:34.294Z,2.80
2022-09-14T23:22:05.136Z,2.80
2022-09-14T23:24:34.723Z,4.00
2022-09-14T23:27:04.676Z,3.80
2022-09-14T23:32:04.926Z,3.90
2022-09-14T23:34:34.653Z,3.90
2022-09-14T23:39:34.026Z,4.20
2022-09-14T23:42:04.641Z,3.40
2022-09-14T23:44:34.863Z,3.00
2022-09-14T23:47:04.272Z,3.10
2022-09-14T23:49:33.505Z,2.70
2022-09-14T23:52:03.581Z,3.10
2022-09-14T23:54:33.424Z,3.10
2022-09-14T23:57:03.664Z,3.10
2022-09-14T23:59:33.122Z,2.90
